cloudbaseCUmx.php :- Version MX_2.2.4a - 22-April-2022
    copyright © 2024 Silver Acorn Weather 
    PHP Version 7.2.34


TIME and DATE
    Time Zone :- Chicago/America (GMT-4 hours)
    Daylight saving ? :- Yes
    Date/Time :- Fri, 24 May 2024 07:04:27 (Day)
    Last updated :- 06:00 Friday, May 24, 2024

INPUT ITEM: RAW DATA -> DERIVED
    Current temp :- 69.2 °F
    Dewpoint :- 64.5 °F
    Rain Fall :- 0.00 in
    Barometer :- 30 in
    Humidity :- 85 %
    Wind Speed :- 4 mph
    Wind Dir :- 192 degrees
    Cloud Altitude :- 1128 ft (ASL)
    Latitude :- 38.838889 N = Northern Hemisphere
    Season :- Spring
    Moon Age :- 16 days
    Moon Percent :- 99
    Day or Night ? :- Day
    Tag file time Interval :- 5 Minutes

CUMULUS CONDITIONS
    Cumulus conditions not in use
    Zambretti # :- 24

METAR CONDITONS - Metar Times UTC, Update Station times based on timezone setting
    $pathToMetFile :- ./cache/
    Metar - Rawdata :- 2024/05/24 10:54 KSUS 241054Z VRB03KT 10SM BKN007 BKN017 21/20 A2978 RMK AO2 SLP077 T02060200 $
    Metar - Trimmed :- 241054Z VRB03KT 10SM BKN007 BKN017 21/20 A2978 RMK AO2 SLP077 T02060200 $
    Metar - Decoded :- Not Raining; Mostly cloudy, Mostly cloudy
    Now :- 1716548666 seconds
    Metar report timestamp :- 1716548040 seconds
    Age of File :- 10.43 minutes
    When to update Metar :- 1716489180 seconds   (Metar report timestamp plus 39 mins refresh time)
    Next Download in :- -991.43 Minutes (if  '-' then refresh page, if still '-' then Metar update overdue!)
    Metar file :- New File downloaded
     AUTO Metar station updates usually every 30 minutes. MANUAL Metar station updates usually Hourly.

OUTPUT DATA

    Background image file name :- ./images/cb/cb-bg-00sprd.png
    $showAGL / ASL :- true
    Cloud Temp :- 63 °F
    $useWXrain :- true
    $tag interval :- 5
    Last rained :- 1.62 days ago
    Last rained Y-M-D h:m :- 2024-05-22 15:08
    No rain in last 5 minutes :- Not raining

SETTINGS
    $tagfile :- ./CUtags.php
    $time last update :- 06:00 on 24 May 2024
    $ICAO :- KSUS
    $pathToMetFile :- ./cache/
    $tz :- Chicago/America
    $pathToImages :- ./images/cb/  ( background, cloud, windsock and scale images )
    $srcmoonimgdir :- ./images/moon/  ( source of moon images )
    $dstmoonimgdir :- ./images/moon/  ( cbmoon.png )
    $switchSeasons :- true
    $showCldSource :- true
    $showCloudTemp :- true
    $showCaption :- true
    $showMoon :- true
    $showScale :- true
    $showWinsock :- false
    $showWindDir :- false
    $showWindSpd :- false
    $showTemp :- false
    $showHumidity :- false
    $showBaro :- false
    $alwaysShowCloud :- false
    $useCUHeight :- true
    $getMetar :- true
    $metarRefresh :- true
    $useMetarAtNight :- true
    $onlyUseMetar :- true
    $reportMistAt :- 25 ft
    $reportFogAt :- 10 ft
    $stationAltitude :- 532 ft ASL